sensor_id;sensor_type;location;lat;lon;timestamp;temperature;humidity
73547;SHT30;61807;48.384;-4.386;2022-08-01T00:01:56;19.84;80.09
73547;SHT30;61807;48.384;-4.386;2022-08-01T00:04:21;19.78;80.10
73547;SHT30;61807;48.384;-4.386;2022-08-01T00:06:47;19.75;80.26
73547;SHT30;61807;48.384;-4.386;2022-08-01T00:09:12;19.77;80.29
73547;SHT30;61807;48.384;-4.386;2022-08-01T00:11:38;19.78;80.29
73547;SHT30;61807;48.384;-4.386;2022-08-01T00:14:03;19.77;80.24
73547;SHT30;61807;48.384;-4.386;2022-08-01T00:16:28;19.77;80.28
73547;SHT30;61807;48.384;-4.386;2022-08-01T00:18:54;19.77;80.29
73547;SHT30;61807;48.384;-4.386;2022-08-01T00:21:20;19.78;80.24
73547;SHT30;61807;48.384;-4.386;2022-08-01T00:23:46;19.78;80.23
73547;SHT30;61807;48.384;-4.386;2022-08-01T00:26:12;19.75;80.19
73547;SHT30;61807;48.384;-4.386;2022-08-01T00:28:38;19.77;80.19
73547;SHT30;61807;48.384;-4.386;2022-08-01T00:31:04;19.75;80.18
73547;SHT30;61807;48.384;-4.386;2022-08-01T00:33:29;19.75;80.25
73547;SHT30;61807;48.384;-4.386;2022-08-01T00:35:54;19.74;80.30
73547;SHT30;61807;48.384;-4.386;2022-08-01T00:38:21;19.74;80.26
73547;SHT30;61807;48.384;-4.386;2022-08-01T00:40:47;19.75;80.26
73547;SHT30;61807;48.384;-4.386;2022-08-01T00:43:13;19.70;80.25
73547;SHT30;61807;48.384;-4.386;2022-08-01T00:45:39;19.67;80.29
73547;SHT30;61807;48.384;-4.386;2022-08-01T00:48:05;19.67;80.31
73547;SHT30;61807;48.384;-4.386;2022-08-01T00:50:30;19.67;80.21
73547;SHT30;61807;48.384;-4.386;2022-08-01T00:52:57;19.64;80.13
73547;SHT30;61807;48.384;-4.386;2022-08-01T00:55:24;19.63;80.27
73547;SHT30;61807;48.384;-4.386;2022-08-01T00:57:51;19.66;80.23
73547;SHT30;61807;48.384;-4.386;2022-08-01T01:00:16;19.64;80.24
73547;SHT30;61807;48.384;-4.386;2022-08-01T01:02:42;19.66;80.14
73547;SHT30;61807;48.384;-4.386;2022-08-01T01:05:09;19.64;80.09
73547;SHT30;61807;48.384;-4.386;2022-08-01T01:10:16;19.60;80.22
73547;SHT30;61807;48.384;-4.386;2022-08-01T01:12:55;19.60;80.14
73547;SHT30;61807;48.384;-4.386;2022-08-01T01:15:49;19.60;80.16
73547;SHT30;61807;48.384;-4.386;2022-08-01T01:18:25;19.60;80.24
73547;SHT30;61807;48.384;-4.386;2022-08-01T01:26:29;19.60;80.01
73547;SHT30;61807;48.384;-4.386;2022-08-01T01:31:36;19.61;80.04
73547;SHT30;61807;48.384;-4.386;2022-08-01T01:34:06;19.61;79.99
73547;SHT30;61807;48.384;-4.386;2022-08-01T01:36:33;19.63;79.98
73547;SHT30;61807;48.384;-4.386;2022-08-01T01:39:00;19.61;80.02
73547;SHT30;61807;48.384;-4.386;2022-08-01T01:41:27;19.60;80.14
73547;SHT30;61807;48.384;-4.386;2022-08-01T01:43:55;19.57;80.16
73547;SHT30;61807;48.384;-4.386;2022-08-01T01:46:24;19.60;80.09
73547;SHT30;61807;48.384;-4.386;2022-08-01T01:48:53;19.57;80.19
73547;SHT30;61807;48.384;-4.386;2022-08-01T01:51:22;19.56;80.22
73547;SHT30;61807;48.384;-4.386;2022-08-01T01:53:48;19.58;80.23
73547;SHT30;61807;48.384;-4.386;2022-08-01T01:56:16;19.57;80.20
73547;SHT30;61807;48.384;-4.386;2022-08-01T01:58:43;19.54;80.24
73547;SHT30;61807;48.384;-4.386;2022-08-01T02:01:10;19.53;80.25
73547;SHT30;61807;48.384;-4.386;2022-08-01T02:03:38;19.53;80.19
73547;SHT30;61807;48.384;-4.386;2022-08-01T02:06:05;19.50;80.29
73547;SHT30;61807;48.384;-4.386;2022-08-01T02:08:32;19.49;80.31
73547;SHT30;61807;48.384;-4.386;2022-08-01T02:11:00;19.51;80.31
73547;SHT30;61807;48.384;-4.386;2022-08-01T02:13:48;19.53;80.31
73547;SHT30;61807;48.384;-4.386;2022-08-01T02:16:16;19.54;80.40
73547;SHT30;61807;48.384;-4.386;2022-08-01T02:18:42;19.51;80.39
73547;SHT30;61807;48.384;-4.386;2022-08-01T02:21:09;19.53;80.29
73547;SHT30;61807;48.384;-4.386;2022-08-01T02:23:38;19.51;80.35
73547;SHT30;61807;48.384;-4.386;2022-08-01T02:26:09;19.53;80.45
73547;SHT30;61807;48.384;-4.386;2022-08-01T02:28:59;19.51;80.30
73547;SHT30;61807;48.384;-4.386;2022-08-01T02:31:25;19.49;80.44
73547;SHT30;61807;48.384;-4.386;2022-08-01T02:33:58;19.49;80.37
73547;SHT30;61807;48.384;-4.386;2022-08-01T02:36:26;19.47;80.36
73547;SHT30;61807;48.384;-4.386;2022-08-01T02:38:54;19.50;80.44
73547;SHT30;61807;48.384;-4.386;2022-08-01T02:41:21;19.47;80.45
73547;SHT30;61807;48.384;-4.386;2022-08-01T02:43:52;19.47;80.41
73547;SHT30;61807;48.384;-4.386;2022-08-01T02:46:24;19.51;80.47
73547;SHT30;61807;48.384;-4.386;2022-08-01T02:48:52;19.49;80.50
73547;SHT30;61807;48.384;-4.386;2022-08-01T02:51:21;19.49;80.55
73547;SHT30;61807;48.384;-4.386;2022-08-01T02:53:50;19.49;80.46
73547;SHT30;61807;48.384;-4.386;2022-08-01T02:56:17;19.47;80.56
73547;SHT30;61807;48.384;-4.386;2022-08-01T02:58:44;19.46;80.57
73547;SHT30;61807;48.384;-4.386;2022-08-01T03:01:12;19.49;80.55
73547;SHT30;61807;48.384;-4.386;2022-08-01T03:03:38;19.50;80.48
73547;SHT30;61807;48.384;-4.386;2022-08-01T03:06:05;19.50;80.47
73547;SHT30;61807;48.384;-4.386;2022-08-01T03:08:31;19.49;80.54
73547;SHT30;61807;48.384;-4.386;2022-08-01T03:10:59;19.50;80.56
73547;SHT30;61807;48.384;-4.386;2022-08-01T03:13:25;19.50;80.61
73547;SHT30;61807;48.384;-4.386;2022-08-01T03:15:54;19.49;80.62
73547;SHT30;61807;48.384;-4.386;2022-08-01T03:18:21;19.46;80.70
73547;SHT30;61807;48.384;-4.386;2022-08-01T03:20:50;19.46;80.74
73547;SHT30;61807;48.384;-4.386;2022-08-01T03:23:17;19.43;80.68
73547;SHT30;61807;48.384;-4.386;2022-08-01T03:25:44;19.40;80.64
73547;SHT30;61807;48.384;-4.386;2022-08-01T03:28:13;19.34;80.64
73547;SHT30;61807;48.384;-4.386;2022-08-01T03:30:40;19.30;80.77
73547;SHT30;61807;48.384;-4.386;2022-08-01T03:33:06;19.34;80.78
73547;SHT30;61807;48.384;-4.386;2022-08-01T03:35:39;19.29;80.85
73547;SHT30;61807;48.384;-4.386;2022-08-01T03:38:08;19.29;80.70
73547;SHT30;61807;48.384;-4.386;2022-08-01T03:40:39;19.26;80.75
73547;SHT30;61807;48.384;-4.386;2022-08-01T03:43:19;19.27;80.78
73547;SHT30;61807;48.384;-4.386;2022-08-01T03:45:50;19.29;80.67
73547;SHT30;61807;48.384;-4.386;2022-08-01T03:48:18;19.30;80.69
73547;SHT30;61807;48.384;-4.386;2022-08-01T03:50:50;19.30;80.69
73547;SHT30;61807;48.384;-4.386;2022-08-01T03:53:20;19.27;80.71
73547;SHT30;61807;48.384;-4.386;2022-08-01T03:55:48;19.27;80.66
73547;SHT30;61807;48.384;-4.386;2022-08-01T03:58:15;19.26;80.67
73547;SHT30;61807;48.384;-4.386;2022-08-01T04:00:41;19.27;80.62
73547;SHT30;61807;48.384;-4.386;2022-08-01T04:03:09;19.22;80.72
73547;SHT30;61807;48.384;-4.386;2022-08-01T04:05:35;19.22;80.79
73547;SHT30;61807;48.384;-4.386;2022-08-01T04:08:01;19.23;80.70
73547;SHT30;61807;48.384;-4.386;2022-08-01T04:10:27;19.22;80.67
73547;SHT30;61807;48.384;-4.386;2022-08-01T04:12:53;19.19;80.72
73547;SHT30;61807;48.384;-4.386;2022-08-01T04:15:19;19.20;80.70
73547;SHT30;61807;48.384;-4.386;2022-08-01T04:17:45;19.20;80.75
73547;SHT30;61807;48.384;-4.386;2022-08-01T04:20:11;19.22;80.71
73547;SHT30;61807;48.384;-4.386;2022-08-01T04:22:37;19.20;80.79
73547;SHT30;61807;48.384;-4.386;2022-08-01T04:25:07;19.20;80.81
73547;SHT30;61807;48.384;-4.386;2022-08-01T04:27:38;19.20;80.80
73547;SHT30;61807;48.384;-4.386;2022-08-01T04:30:06;19.22;80.83
73547;SHT30;61807;48.384;-4.386;2022-08-01T04:32:35;19.22;80.83
73547;SHT30;61807;48.384;-4.386;2022-08-01T04:35:06;19.22;80.80
73547;SHT30;61807;48.384;-4.386;2022-08-01T04:37:32;19.23;80.84
73547;SHT30;61807;48.384;-4.386;2022-08-01T04:39:59;19.22;80.83
73547;SHT30;61807;48.384;-4.386;2022-08-01T04:42:25;19.23;80.76
73547;SHT30;61807;48.384;-4.386;2022-08-01T04:44:52;19.22;80.78
73547;SHT30;61807;48.384;-4.386;2022-08-01T04:47:18;19.20;80.77
73547;SHT30;61807;48.384;-4.386;2022-08-01T04:49:45;19.23;80.79
73547;SHT30;61807;48.384;-4.386;2022-08-01T04:52:11;19.20;80.82
73547;SHT30;61807;48.384;-4.386;2022-08-01T04:54:36;19.19;80.66
73547;SHT30;61807;48.384;-4.386;2022-08-01T04:57:03;19.17;80.55
73547;SHT30;61807;48.384;-4.386;2022-08-01T04:59:31;19.17;80.52
73547;SHT30;61807;48.384;-4.386;2022-08-01T05:02:16;19.20;80.55
73547;SHT30;61807;48.384;-4.386;2022-08-01T05:04:43;19.19;80.63
73547;SHT30;61807;48.384;-4.386;2022-08-01T05:07:09;19.22;80.61
73547;SHT30;61807;48.384;-4.386;2022-08-01T05:09:36;19.23;80.64
73547;SHT30;61807;48.384;-4.386;2022-08-01T05:12:03;19.22;80.49
73547;SHT30;61807;48.384;-4.386;2022-08-01T05:14:29;19.19;80.42
73547;SHT30;61807;48.384;-4.386;2022-08-01T05:16:59;19.23;80.37
73547;SHT30;61807;48.384;-4.386;2022-08-01T05:19:25;19.23;80.42
73547;SHT30;61807;48.384;-4.386;2022-08-01T05:21:51;19.26;80.45
73547;SHT30;61807;48.384;-4.386;2022-08-01T05:24:17;19.23;80.44
73547;SHT30;61807;48.384;-4.386;2022-08-01T05:26:42;19.23;80.45
73547;SHT30;61807;48.384;-4.386;2022-08-01T05:29:08;19.24;80.39
73547;SHT30;61807;48.384;-4.386;2022-08-01T05:31:33;19.23;80.56
73547;SHT30;61807;48.384;-4.386;2022-08-01T05:34:02;19.29;80.45
73547;SHT30;61807;48.384;-4.386;2022-08-01T05:36:28;19.24;80.40
73547;SHT30;61807;48.384;-4.386;2022-08-01T05:38:53;19.24;80.37
73547;SHT30;61807;48.384;-4.386;2022-08-01T05:41:19;19.23;80.35
73547;SHT30;61807;48.384;-4.386;2022-08-01T05:43:45;19.24;80.47
73547;SHT30;61807;48.384;-4.386;2022-08-01T05:46:10;19.23;80.54
73547;SHT30;61807;48.384;-4.386;2022-08-01T05:48:36;19.24;80.52
73547;SHT30;61807;48.384;-4.386;2022-08-01T05:51:02;19.24;80.45
73547;SHT30;61807;48.384;-4.386;2022-08-01T05:53:27;19.26;80.55
73547;SHT30;61807;48.384;-4.386;2022-08-01T05:55:52;19.24;80.56
73547;SHT30;61807;48.384;-4.386;2022-08-01T05:58:18;19.24;80.56
73547;SHT30;61807;48.384;-4.386;2022-08-01T06:00:43;19.30;80.45
73547;SHT30;61807;48.384;-4.386;2022-08-01T06:03:09;19.31;80.39
73547;SHT30;61807;48.384;-4.386;2022-08-01T06:05:36;19.27;80.28
73547;SHT30;61807;48.384;-4.386;2022-08-01T06:08:01;19.31;80.47
73547;SHT30;61807;48.384;-4.386;2022-08-01T06:10:27;19.34;80.31
73547;SHT30;61807;48.384;-4.386;2022-08-01T06:12:52;19.38;80.22
73547;SHT30;61807;48.384;-4.386;2022-08-01T06:15:17;19.38;79.76
73547;SHT30;61807;48.384;-4.386;2022-08-01T06:17:43;19.36;79.80
73547;SHT30;61807;48.384;-4.386;2022-08-01T06:20:09;19.38;79.85
73547;SHT30;61807;48.384;-4.386;2022-08-01T06:22:34;19.40;79.90
73547;SHT30;61807;48.384;-4.386;2022-08-01T06:25:00;19.41;79.87
73547;SHT30;61807;48.384;-4.386;2022-08-01T06:27:25;19.46;79.74
73547;SHT30;61807;48.384;-4.386;2022-08-01T06:29:51;19.43;79.55
73547;SHT30;61807;48.384;-4.386;2022-08-01T06:32:19;19.45;79.47
73547;SHT30;61807;48.384;-4.386;2022-08-01T06:34:44;19.47;79.49
73547;SHT30;61807;48.384;-4.386;2022-08-01T06:37:10;19.54;79.48
73547;SHT30;61807;48.384;-4.386;2022-08-01T06:39:35;19.56;79.31
73547;SHT30;61807;48.384;-4.386;2022-08-01T06:42:01;19.58;79.40
73547;SHT30;61807;48.384;-4.386;2022-08-01T06:44:26;19.61;79.33
73547;SHT30;61807;48.384;-4.386;2022-08-01T06:46:52;19.66;79.17
73547;SHT30;61807;48.384;-4.386;2022-08-01T06:49:17;19.63;79.08
73547;SHT30;61807;48.384;-4.386;2022-08-01T06:51:42;19.63;79.02
73547;SHT30;61807;48.384;-4.386;2022-08-01T06:54:08;19.64;78.99
73547;SHT30;61807;48.384;-4.386;2022-08-01T06:56:33;19.66;78.98
73547;SHT30;61807;48.384;-4.386;2022-08-01T06:59:00;19.64;78.54
73547;SHT30;61807;48.384;-4.386;2022-08-01T07:01:27;19.66;78.57
73547;SHT30;61807;48.384;-4.386;2022-08-01T07:03:53;19.70;78.51
73547;SHT30;61807;48.384;-4.386;2022-08-01T07:06:18;19.77;78.26
73547;SHT30;61807;48.384;-4.386;2022-08-01T07:08:44;19.81;77.95
73547;SHT30;61807;48.384;-4.386;2022-08-01T07:11:09;19.88;78.12
73547;SHT30;61807;48.384;-4.386;2022-08-01T07:13:35;19.96;78.22
73547;SHT30;61807;48.384;-4.386;2022-08-01T07:16:00;19.98;77.72
73547;SHT30;61807;48.384;-4.386;2022-08-01T07:18:26;20.01;77.72
73547;SHT30;61807;48.384;-4.386;2022-08-01T07:20:51;20.04;77.70
73547;SHT30;61807;48.384;-4.386;2022-08-01T07:23:17;20.05;77.48
73547;SHT30;61807;48.384;-4.386;2022-08-01T07:25:43;20.01;77.25
73547;SHT30;61807;48.384;-4.386;2022-08-01T07:28:08;20.05;77.63
73547;SHT30;61807;48.384;-4.386;2022-08-01T07:30:34;20.09;77.53
73547;SHT30;61807;48.384;-4.386;2022-08-01T07:33:00;20.14;77.50
73547;SHT30;61807;48.384;-4.386;2022-08-01T07:35:26;20.16;77.45
73547;SHT30;61807;48.384;-4.386;2022-08-01T07:37:51;20.22;77.15
73547;SHT30;61807;48.384;-4.386;2022-08-01T07:40:18;20.24;77.01
73547;SHT30;61807;48.384;-4.386;2022-08-01T07:42:45;20.28;77.09
73547;SHT30;61807;48.384;-4.386;2022-08-01T07:45:11;20.28;76.42
73547;SHT30;61807;48.384;-4.386;2022-08-01T07:47:37;20.21;76.51
73547;SHT30;61807;48.384;-4.386;2022-08-01T07:50:03;20.21;76.72
73547;SHT30;61807;48.384;-4.386;2022-08-01T07:52:29;20.21;76.57
73547;SHT30;61807;48.384;-4.386;2022-08-01T07:54:56;20.19;76.66
73547;SHT30;61807;48.384;-4.386;2022-08-01T07:57:22;20.24;76.61
73547;SHT30;61807;48.384;-4.386;2022-08-01T07:59:48;20.26;76.79
73547;SHT30;61807;48.384;-4.386;2022-08-01T08:02:13;20.28;76.72
73547;SHT30;61807;48.384;-4.386;2022-08-01T08:04:39;20.29;76.41
73547;SHT30;61807;48.384;-4.386;2022-08-01T08:07:04;20.32;76.98
73547;SHT30;61807;48.384;-4.386;2022-08-01T08:09:30;20.37;76.86
73547;SHT30;61807;48.384;-4.386;2022-08-01T08:11:56;20.43;76.69
73547;SHT30;61807;48.384;-4.386;2022-08-01T08:14:21;20.49;76.23
73547;SHT30;61807;48.384;-4.386;2022-08-01T08:16:48;20.50;76.11
73547;SHT30;61807;48.384;-4.386;2022-08-01T08:19:13;20.54;75.67
73547;SHT30;61807;48.384;-4.386;2022-08-01T08:21:39;20.63;75.38
73547;SHT30;61807;48.384;-4.386;2022-08-01T08:24:05;20.69;75.37
73547;SHT30;61807;48.384;-4.386;2022-08-01T08:26:48;20.76;75.52
73547;SHT30;61807;48.384;-4.386;2022-08-01T08:29:14;20.77;75.04
73547;SHT30;61807;48.384;-4.386;2022-08-01T08:31:40;20.81;75.00
73547;SHT30;61807;48.384;-4.386;2022-08-01T08:34:05;20.83;74.84
73547;SHT30;61807;48.384;-4.386;2022-08-01T08:36:31;20.81;74.92
73547;SHT30;61807;48.384;-4.386;2022-08-01T08:38:59;20.81;74.73
73547;SHT30;61807;48.384;-4.386;2022-08-01T08:41:34;20.83;74.98
73547;SHT30;61807;48.384;-4.386;2022-08-01T08:44:04;20.90;74.46
73547;SHT30;61807;48.384;-4.386;2022-08-01T08:46:30;20.95;74.51
73547;SHT30;61807;48.384;-4.386;2022-08-01T08:48:58;20.95;74.25
73547;SHT30;61807;48.384;-4.386;2022-08-01T08:51:26;20.93;74.10
73547;SHT30;61807;48.384;-4.386;2022-08-01T08:53:55;20.95;74.34
73547;SHT30;61807;48.384;-4.386;2022-08-01T08:56:21;21.00;74.43
73547;SHT30;61807;48.384;-4.386;2022-08-01T08:58:48;21.04;74.76
73547;SHT30;61807;48.384;-4.386;2022-08-01T09:01:13;21.10;74.49
73547;SHT30;61807;48.384;-4.386;2022-08-01T09:03:40;21.10;74.29
73547;SHT30;61807;48.384;-4.386;2022-08-01T09:06:06;21.14;74.10
73547;SHT30;61807;48.384;-4.386;2022-08-01T09:08:32;21.18;74.21
73547;SHT30;61807;48.384;-4.386;2022-08-01T09:10:58;21.14;73.76
73547;SHT30;61807;48.384;-4.386;2022-08-01T09:13:23;21.18;73.42
73547;SHT30;61807;48.384;-4.386;2022-08-01T09:15:51;21.18;73.51
73547;SHT30;61807;48.384;-4.386;2022-08-01T09:18:36;21.25;73.54
73547;SHT30;61807;48.384;-4.386;2022-08-01T09:21:16;21.31;73.26
73547;SHT30;61807;48.384;-4.386;2022-08-01T09:23:49;21.34;73.31
73547;SHT30;61807;48.384;-4.386;2022-08-01T09:26:20;21.35;73.22
73547;SHT30;61807;48.384;-4.386;2022-08-01T09:28:46;21.34;73.24
73547;SHT30;61807;48.384;-4.386;2022-08-01T09:31:14;21.31;73.29
73547;SHT30;61807;48.384;-4.386;2022-08-01T09:33:52;21.31;73.36
73547;SHT30;61807;48.384;-4.386;2022-08-01T09:36:22;21.31;73.16
73547;SHT30;61807;48.384;-4.386;2022-08-01T09:38:49;21.35;73.36
73547;SHT30;61807;48.384;-4.386;2022-08-01T09:41:14;21.37;73.00
73547;SHT30;61807;48.384;-4.386;2022-08-01T09:43:47;21.42;72.97
73547;SHT30;61807;48.384;-4.386;2022-08-01T09:46:13;21.45;73.37
73547;SHT30;61807;48.384;-4.386;2022-08-01T09:48:39;21.48;72.90
73547;SHT30;61807;48.384;-4.386;2022-08-01T09:51:28;21.51;72.80
73547;SHT30;61807;48.384;-4.386;2022-08-01T09:53:54;21.53;72.86
73547;SHT30;61807;48.384;-4.386;2022-08-01T09:56:21;21.56;72.64
73547;SHT30;61807;48.384;-4.386;2022-08-01T09:58:58;21.61;72.69
73547;SHT30;61807;48.384;-4.386;2022-08-01T10:01:25;21.65;72.54
73547;SHT30;61807;48.384;-4.386;2022-08-01T10:04:20;21.69;72.57
73547;SHT30;61807;48.384;-4.386;2022-08-01T10:06:48;21.69;72.25
73547;SHT30;61807;48.384;-4.386;2022-08-01T10:09:32;21.67;72.26
73547;SHT30;61807;48.384;-4.386;2022-08-01T10:11:59;21.72;72.21
73547;SHT30;61807;48.384;-4.386;2022-08-01T10:14:26;21.73;71.83
73547;SHT30;61807;48.384;-4.386;2022-08-01T10:16:53;21.78;71.76
73547;SHT30;61807;48.384;-4.386;2022-08-01T10:19:25;21.76;71.57
73547;SHT30;61807;48.384;-4.386;2022-08-01T10:21:53;21.79;71.76
73547;SHT30;61807;48.384;-4.386;2022-08-01T10:24:20;21.82;71.78
73547;SHT30;61807;48.384;-4.386;2022-08-01T10:26:52;21.85;71.87
73547;SHT30;61807;48.384;-4.386;2022-08-01T10:29:20;21.94;71.93
73547;SHT30;61807;48.384;-4.386;2022-08-01T10:31:47;21.97;71.71
73547;SHT30;61807;48.384;-4.386;2022-08-01T10:34:15;22.01;71.89
73547;SHT30;61807;48.384;-4.386;2022-08-01T10:36:43;22.03;71.83
73547;SHT30;61807;48.384;-4.386;2022-08-01T10:39:12;22.07;71.56
73547;SHT30;61807;48.384;-4.386;2022-08-01T10:41:39;22.06;71.52
73547;SHT30;61807;48.384;-4.386;2022-08-01T10:44:09;22.11;71.34
73547;SHT30;61807;48.384;-4.386;2022-08-01T10:46:39;22.17;71.41
73547;SHT30;61807;48.384;-4.386;2022-08-01T10:49:10;22.27;71.24
73547;SHT30;61807;48.384;-4.386;2022-08-01T10:51:37;22.34;71.18
73547;SHT30;61807;48.384;-4.386;2022-08-01T10:54:09;22.45;70.85
73547;SHT30;61807;48.384;-4.386;2022-08-01T10:56:48;22.54;70.54
73547;SHT30;61807;48.384;-4.386;2022-08-01T10:59:22;22.61;70.52
73547;SHT30;61807;48.384;-4.386;2022-08-01T11:02:31;22.69;70.42
73547;SHT30;61807;48.384;-4.386;2022-08-01T11:05:06;22.69;70.23
73547;SHT30;61807;48.384;-4.386;2022-08-01T11:07:43;22.72;70.23
73547;SHT30;61807;48.384;-4.386;2022-08-01T11:10:19;22.76;70.37
73547;SHT30;61807;48.384;-4.386;2022-08-01T11:12:45;22.78;70.62
73547;SHT30;61807;48.384;-4.386;2022-08-01T11:17:39;22.84;70.39
73547;SHT30;61807;48.384;-4.386;2022-08-01T11:20:10;22.91;70.22
73547;SHT30;61807;48.384;-4.386;2022-08-01T11:30:52;22.98;69.60
73547;SHT30;61807;48.384;-4.386;2022-08-01T11:38:41;23.08;69.56
73547;SHT30;61807;48.384;-4.386;2022-08-01T11:44:15;23.27;69.25
73547;SHT30;61807;48.384;-4.386;2022-08-01T11:54:54;23.56;68.96
73547;SHT30;61807;48.384;-4.386;2022-08-01T11:57:26;23.66;68.44
73547;SHT30;61807;48.384;-4.386;2022-08-01T11:59:54;23.70;67.99
73547;SHT30;61807;48.384;-4.386;2022-08-01T12:02:32;23.77;68.21
73547;SHT30;61807;48.384;-4.386;2022-08-01T12:05:07;23.87;67.63
73547;SHT30;61807;48.384;-4.386;2022-08-01T12:07:34;23.95;67.68
73547;SHT30;61807;48.384;-4.386;2022-08-01T12:10:06;24.06;67.31
73547;SHT30;61807;48.384;-4.386;2022-08-01T12:12:34;24.11;66.84
73547;SHT30;61807;48.384;-4.386;2022-08-01T12:15:05;24.12;66.32
73547;SHT30;61807;48.384;-4.386;2022-08-01T12:17:42;24.14;67.02
73547;SHT30;61807;48.384;-4.386;2022-08-01T12:20:10;24.18;66.76
73547;SHT30;61807;48.384;-4.386;2022-08-01T12:22:37;24.18;66.02
73547;SHT30;61807;48.384;-4.386;2022-08-01T12:27:33;24.22;66.34
73547;SHT30;61807;48.384;-4.386;2022-08-01T12:29:59;24.21;66.00
73547;SHT30;61807;48.384;-4.386;2022-08-01T12:32:28;24.18;65.59
73547;SHT30;61807;48.384;-4.386;2022-08-01T12:34:57;24.16;65.83
73547;SHT30;61807;48.384;-4.386;2022-08-01T12:37:26;24.21;66.26
73547;SHT30;61807;48.384;-4.386;2022-08-01T12:39:51;24.26;66.51
73547;SHT30;61807;48.384;-4.386;2022-08-01T12:42:17;24.39;66.12
73547;SHT30;61807;48.384;-4.386;2022-08-01T12:44:45;24.51;66.01
73547;SHT30;61807;48.384;-4.386;2022-08-01T12:47:11;24.57;66.02
73547;SHT30;61807;48.384;-4.386;2022-08-01T12:49:38;24.70;65.66
73547;SHT30;61807;48.384;-4.386;2022-08-01T12:52:05;24.87;65.52
73547;SHT30;61807;48.384;-4.386;2022-08-01T12:54:30;24.97;65.17
73547;SHT30;61807;48.384;-4.386;2022-08-01T12:57:23;25.03;64.98
73547;SHT30;61807;48.384;-4.386;2022-08-01T12:59:52;25.00;64.19
73547;SHT30;61807;48.384;-4.386;2022-08-01T13:02:18;25.03;64.50
73547;SHT30;61807;48.384;-4.386;2022-08-01T13:04:50;25.04;64.43
73547;SHT30;61807;48.384;-4.386;2022-08-01T13:07:16;25.04;64.49
73547;SHT30;61807;48.384;-4.386;2022-08-01T13:09:51;25.11;64.51
73547;SHT30;61807;48.384;-4.386;2022-08-01T13:12:17;25.17;64.39
73547;SHT30;61807;48.384;-4.386;2022-08-01T13:14:42;25.28;64.07
73547;SHT30;61807;48.384;-4.386;2022-08-01T13:17:08;25.38;64.09
73547;SHT30;61807;48.384;-4.386;2022-08-01T13:19:46;25.63;63.61
73547;SHT30;61807;48.384;-4.386;2022-08-01T13:22:12;25.89;63.48
73547;SHT30;61807;48.384;-4.386;2022-08-01T13:24:38;26.14;62.53
73547;SHT30;61807;48.384;-4.386;2022-08-01T13:27:04;26.41;62.16
73547;SHT30;61807;48.384;-4.386;2022-08-01T13:29:33;26.82;61.42
73547;SHT30;61807;48.384;-4.386;2022-08-01T13:32:11;27.27;60.79
73547;SHT30;61807;48.384;-4.386;2022-08-01T13:34:37;27.85;59.70
73547;SHT30;61807;48.384;-4.386;2022-08-01T13:37:03;28.16;58.27
73547;SHT30;61807;48.384;-4.386;2022-08-01T13:39:29;28.15;58.48
73547;SHT30;61807;48.384;-4.386;2022-08-01T13:42:12;27.94;58.08
73547;SHT30;61807;48.384;-4.386;2022-08-01T13:44:39;27.88;58.58
73547;SHT30;61807;48.384;-4.386;2022-08-01T13:47:05;28.00;57.58
73547;SHT30;61807;48.384;-4.386;2022-08-01T13:49:31;28.00;58.40
73547;SHT30;61807;48.384;-4.386;2022-08-01T13:51:57;28.09;56.50
73547;SHT30;61807;48.384;-4.386;2022-08-01T13:54:22;28.28;56.76
73547;SHT30;61807;48.384;-4.386;2022-08-01T13:56:49;28.53;56.15
73547;SHT30;61807;48.384;-4.386;2022-08-01T13:59:14;28.92;55.78
73547;SHT30;61807;48.384;-4.386;2022-08-01T14:01:40;28.99;55.87
73547;SHT30;61807;48.384;-4.386;2022-08-01T14:04:05;28.93;55.76
73547;SHT30;61807;48.384;-4.386;2022-08-01T14:06:31;28.70;56.15
73547;SHT30;61807;48.384;-4.386;2022-08-01T14:08:57;28.59;55.93
73547;SHT30;61807;48.384;-4.386;2022-08-01T14:11:22;28.73;55.89
73547;SHT30;61807;48.384;-4.386;2022-08-01T14:13:48;28.79;55.62
73547;SHT30;61807;48.384;-4.386;2022-08-01T14:16:14;28.69;55.26
73547;SHT30;61807;48.384;-4.386;2022-08-01T14:18:41;28.67;55.44
73547;SHT30;61807;48.384;-4.386;2022-08-01T14:21:06;28.82;55.25
73547;SHT30;61807;48.384;-4.386;2022-08-01T14:23:31;29.04;54.99
73547;SHT30;61807;48.384;-4.386;2022-08-01T14:25:57;29.20;54.06
73547;SHT30;61807;48.384;-4.386;2022-08-01T14:28:22;29.23;53.11
73547;SHT30;61807;48.384;-4.386;2022-08-01T14:30:49;29.20;54.40
73547;SHT30;61807;48.384;-4.386;2022-08-01T14:33:15;29.18;54.30
73547;SHT30;61807;48.384;-4.386;2022-08-01T14:35:40;29.23;54.17
73547;SHT30;61807;48.384;-4.386;2022-08-01T14:38:06;29.23;54.65
73547;SHT30;61807;48.384;-4.386;2022-08-01T14:40:33;29.13;54.50
73547;SHT30;61807;48.384;-4.386;2022-08-01T14:42:58;29.02;54.02
73547;SHT30;61807;48.384;-4.386;2022-08-01T14:45:26;28.89;54.58
73547;SHT30;61807;48.384;-4.386;2022-08-01T14:47:52;28.86;54.50
73547;SHT30;61807;48.384;-4.386;2022-08-01T14:50:17;28.87;54.71
73547;SHT30;61807;48.384;-4.386;2022-08-01T14:52:43;28.86;54.06
73547;SHT30;61807;48.384;-4.386;2022-08-01T14:55:10;28.84;54.67
73547;SHT30;61807;48.384;-4.386;2022-08-01T14:57:37;28.86;54.14
73547;SHT30;61807;48.384;-4.386;2022-08-01T15:00:06;28.74;53.90
73547;SHT30;61807;48.384;-4.386;2022-08-01T15:02:32;28.65;54.12
73547;SHT30;61807;48.384;-4.386;2022-08-01T15:04:57;28.56;53.54
73547;SHT30;61807;48.384;-4.386;2022-08-01T15:07:23;28.39;53.85
73547;SHT30;61807;48.384;-4.386;2022-08-01T15:09:48;28.29;54.44
73547;SHT30;61807;48.384;-4.386;2022-08-01T15:12:14;28.22;54.54
73547;SHT30;61807;48.384;-4.386;2022-08-01T15:14:39;28.18;54.31
73547;SHT30;61807;48.384;-4.386;2022-08-01T15:17:18;28.08;54.95
73547;SHT30;61807;48.384;-4.386;2022-08-01T15:19:45;28.07;54.32
73547;SHT30;61807;48.384;-4.386;2022-08-01T15:22:10;28.00;54.82
73547;SHT30;61807;48.384;-4.386;2022-08-01T15:24:36;27.97;55.35
73547;SHT30;61807;48.384;-4.386;2022-08-01T15:27:02;28.01;55.08
73547;SHT30;61807;48.384;-4.386;2022-08-01T15:29:27;27.97;55.17
73547;SHT30;61807;48.384;-4.386;2022-08-01T15:31:52;27.90;55.18
73547;SHT30;61807;48.384;-4.386;2022-08-01T15:34:18;27.83;55.26
73547;SHT30;61807;48.384;-4.386;2022-08-01T15:36:44;27.81;55.78
73547;SHT30;61807;48.384;-4.386;2022-08-01T15:39:10;27.80;55.46
73547;SHT30;61807;48.384;-4.386;2022-08-01T15:41:35;27.78;54.98
73547;SHT30;61807;48.384;-4.386;2022-08-01T15:44:01;27.63;55.36
73547;SHT30;61807;48.384;-4.386;2022-08-01T15:46:26;27.51;55.60
73547;SHT30;61807;48.384;-4.386;2022-08-01T15:48:52;27.39;55.76
73547;SHT30;61807;48.384;-4.386;2022-08-01T15:51:17;27.32;55.71
73547;SHT30;61807;48.384;-4.386;2022-08-01T15:53:42;27.22;56.16
73547;SHT30;61807;48.384;-4.386;2022-08-01T15:56:09;27.23;56.65
73547;SHT30;61807;48.384;-4.386;2022-08-01T15:58:34;27.27;56.37
73547;SHT30;61807;48.384;-4.386;2022-08-01T16:01:00;27.20;56.36